Time;durP1;ratioP1;P1;durP2;ratioP2;P2;SDS_P1;SDS_P2;PMS_P1;PMS_P2;Temp;Humidity;BMP_temperature;BMP_pressure;BME280_temperature;BME280_humidity;BME280_pressure;Samples;Min_cycle;Max_cycle;Signal;HPM_P1;HPM_P2
2022/03/27 00:01:32;;;;;;;25.52;14.02;;;8.90;99.90;;;;;;4983299;28;20105;-58
2022/03/27 00:03:59;;;;;;;29.13;15.05;;;8.90;99.90;;;;;;4978268;28;20050;-54
2022/03/27 00:06:26;;;;;;;27.23;13.63;;;8.90;99.90;;;;;;4975330;28;20121;-58
2022/03/27 00:08:53;;;;;;;22.95;14.35;;;8.90;99.90;;;;;;4971276;28;20093;-56
2022/03/27 00:11:29;;;;;;;25.35;13.98;;;8.90;99.90;;;;;;4982877;28;20088;-57
2022/03/27 00:14:02;;;;;;;23.40;12.38;;;8.90;99.90;;;;;;4973800;28;20496;-58
2022/03/27 00:16:29;;;;;;;27.95;13.80;;;8.90;99.90;;;;;;4984147;28;20104;-62
2022/03/27 00:18:56;;;;;;;25.98;13.77;;;8.80;99.90;;;;;;4958661;28;20731;-54
2022/03/27 00:21:23;;;;;;;26.50;13.95;;;8.80;99.90;;;;;;4977602;28;20070;-56
2022/03/27 00:23:50;;;;;;;27.67;13.57;;;8.80;99.90;;;;;;4971306;28;20051;-56
2022/03/27 00:26:17;;;;;;;23.75;13.00;;;8.70;99.90;;;;;;4970029;28;20046;-56
2022/03/27 00:28:44;;;;;;;24.08;13.68;;;8.70;99.90;;;;;;4970121;28;20050;-55
2022/03/27 00:31:11;;;;;;;24.02;12.13;;;8.70;99.90;;;;;;4978189;28;20079;-55
2022/03/27 00:33:39;;;;;;;24.25;13.15;;;8.60;99.90;;;;;;4985947;28;20214;-55
2022/03/27 00:36:06;;;;;;;23.25;12.90;;;8.60;99.90;;;;;;4982540;28;20530;-57
2022/03/27 00:38:33;;;;;;;22.05;12.48;;;8.70;99.90;;;;;;4975812;28;20046;-57
2022/03/27 00:41:01;;;;;;;18.45;11.82;;;8.60;99.90;;;;;;4987550;28;20481;-56
2022/03/27 00:43:28;;;;;;;23.90;11.52;;;8.60;99.90;;;;;;4983757;28;20082;-56
2022/03/27 00:45:55;;;;;;;22.60;12.07;;;8.60;99.90;;;;;;4979548;28;20078;-57
2022/03/27 00:48:23;;;;;;;21.40;11.65;;;8.60;99.90;;;;;;4983140;28;20058;-57
2022/03/27 00:50:50;;;;;;;19.75;11.18;;;8.60;99.90;;;;;;4980529;28;20046;-55
2022/03/27 00:53:17;;;;;;;18.73;11.75;;;8.60;99.90;;;;;;4984633;28;20148;-55
2022/03/27 00:55:48;;;;;;;18.65;9.85;;;8.60;99.90;;;;;;4986323;28;20046;-56
2022/03/27 00:58:16;;;;;;;22.15;11.00;;;8.70;99.90;;;;;;4986435;28;20049;-55
2022/03/27 01:00:51;;;;;;;19.42;10.75;;;8.60;99.90;;;;;;4980718;28;20062;-63
2022/03/27 01:03:23;;;;;;;20.10;9.88;;;8.60;99.90;;;;;;4976493;28;20043;-57
2022/03/27 01:05:50;;;;;;;19.85;11.00;;;8.60;99.90;;;;;;4984225;28;20054;-57
2022/03/27 01:09:35;;;;;;;22.73;11.60;;;8.50;99.90;;;;;;4969539;28;20077;-56
2022/03/27 01:11:19;;;;;;;19.83;10.90;;;8.60;99.90;;;;;;4985597;28;20049;-55
2022/03/27 01:13:56;;;;;;;17.75;10.90;;;8.50;99.90;;;;;;4986625;28;20114;-57
2022/03/27 01:16:42;;;;;;;17.92;10.68;;;8.40;99.90;;;;;;4986546;28;20762;-56
2022/03/27 01:19:13;;;;;;;18.00;10.48;;;8.40;99.90;;;;;;4986232;28;20069;-57
2022/03/27 01:21:42;;;;;;;20.48;9.48;;;8.40;99.90;;;;;;4982182;28;20659;-55
2022/03/27 01:24:09;;;;;;;20.98;10.00;;;8.30;99.90;;;;;;4961505;28;20328;-57
2022/03/27 01:26:36;;;;;;;18.80;9.88;;;8.30;99.90;;;;;;4973329;28;20123;-53
2022/03/27 01:29:04;;;;;;;20.27;10.85;;;8.30;99.90;;;;;;4966471;28;20047;-60
2022/03/27 01:31:33;;;;;;;19.25;10.63;;;8.30;99.90;;;;;;4985730;28;20154;-57
2022/03/27 01:34:00;;;;;;;20.67;8.98;;;8.20;99.90;;;;;;4987339;28;20073;-54
2022/03/27 01:36:34;;;;;;;16.50;8.87;;;8.20;99.90;;;;;;4636589;28;10000347;-57
2022/03/27 01:39:06;;;;;;;16.42;9.65;;;8.20;99.90;;;;;;4963062;28;20055;-59
2022/03/27 01:41:33;;;;;;;17.52;9.50;;;8.20;99.90;;;;;;4960608;28;20082;-61
2022/03/27 01:44:00;;;;;;;17.13;8.68;;;8.20;99.90;;;;;;4960892;28;20057;-58
2022/03/27 01:46:35;;;;;;;14.45;8.40;;;8.20;99.90;;;;;;4977629;28;20125;-56
2022/03/27 01:49:03;;;;;;;17.50;8.88;;;8.20;99.90;;;;;;4985727;28;20542;-54
2022/03/27 01:51:30;;;;;;;14.13;8.68;;;8.20;99.90;;;;;;4953334;28;20109;-54
2022/03/27 01:53:56;;;;;;;13.43;8.82;;;8.20;99.90;;;;;;4978009;28;20050;-57
2022/03/27 01:56:23;;;;;;;19.25;10.07;;;8.20;99.90;;;;;;4971426;28;20046;-56
2022/03/27 01:58:50;;;;;;;15.90;8.70;;;8.10;99.90;;;;;;4968872;28;20132;-56
2022/03/27 02:01:17;;;;;;;17.35;8.48;;;8.10;99.90;;;;;;4981683;28;20128;-56
2022/03/27 02:03:45;;;;;;;17.80;9.77;;;8.10;99.90;;;;;;4969579;28;20112;-58
2022/03/27 02:06:12;;;;;;;16.02;8.13;;;8.10;99.90;;;;;;4976309;28;20107;-56
2022/03/27 02:08:39;;;;;;;13.35;7.72;;;8.00;99.90;;;;;;4980342;28;20108;-57
2022/03/27 02:11:06;;;;;;;19.75;9.93;;;8.00;99.90;;;;;;4970337;28;20070;-57
2022/03/27 02:13:32;;;;;;;14.52;7.88;;;8.00;99.90;;;;;;4973937;28;20117;-56
2022/03/27 02:15:59;;;;;;;14.38;8.20;;;7.90;99.90;;;;;;4988500;28;20081;-57
2022/03/27 02:18:27;;;;;;;17.05;8.95;;;7.90;99.90;;;;;;4972417;28;20074;-56
2022/03/27 02:20:54;;;;;;;21.67;10.77;;;7.90;99.90;;;;;;4989482;28;20054;-57
2022/03/27 02:23:24;;;;;;;19.55;9.18;;;7.90;99.90;;;;;;4975812;28;20675;-56
2022/03/27 02:25:51;;;;;;;20.58;8.27;;;7.90;99.90;;;;;;4973796;28;20101;-57
2022/03/27 02:28:18;;;;;;;16.77;9.35;;;7.80;99.90;;;;;;4983624;28;20093;-56
2022/03/27 02:30:45;;;;;;;13.77;9.00;;;7.70;99.90;;;;;;4989028;28;20047;-56
2022/03/27 02:33:12;;;;;;;22.25;9.73;;;7.60;99.90;;;;;;4982116;28;20054;-54
2022/03/27 02:35:39;;;;;;;15.35;8.70;;;7.60;99.90;;;;;;4983253;28;20089;-55
2022/03/27 02:38:06;;;;;;;17.55;9.15;;;7.60;99.90;;;;;;4980847;28;20051;-55
2022/03/27 02:40:37;;;;;;;16.67;9.98;;;7.60;99.90;;;;;;4976748;28;20047;-57
2022/03/27 02:43:04;;;;;;;17.35;9.90;;;7.60;99.90;;;;;;4968000;28;20047;-57
2022/03/27 02:45:32;;;;;;;28.27;11.48;;;7.50;99.90;;;;;;4967189;28;20050;-56
2022/03/27 02:47:59;;;;;;;19.25;9.60;;;7.50;99.90;;;;;;4983557;28;20520;-56
2022/03/27 02:50:26;;;;;;;16.00;9.15;;;7.50;99.90;;;;;;4985752;28;20074;-57
2022/03/27 02:52:53;;;;;;;22.85;9.98;;;7.40;99.90;;;;;;4980656;28;20042;-54
2022/03/27 02:55:20;;;;;;;15.10;8.68;;;7.50;99.90;;;;;;4986906;28;20046;-55
2022/03/27 02:57:47;;;;;;;16.38;8.80;;;7.30;99.90;;;;;;4986731;28;20085;-56
2022/03/27 03:00:15;;;;;;;17.85;9.63;;;7.20;99.90;;;;;;4988208;28;20051;-56
2022/03/27 03:02:42;;;;;;;18.58;9.68;;;7.20;99.90;;;;;;4975592;28;20042;-57
2022/03/27 03:05:09;;;;;;;20.30;9.45;;;7.20;99.90;;;;;;4988818;28;20046;-57
2022/03/27 03:07:42;;;;;;;19.33;10.35;;;7.10;99.90;;;;;;4988584;28;20047;-55
2022/03/27 03:10:10;;;;;;;18.23;10.53;;;7.10;99.90;;;;;;4987978;28;20219;-56
2022/03/27 03:12:38;;;;;;;19.13;10.27;;;7.10;99.90;;;;;;4970068;28;20050;-57
2022/03/27 03:15:06;;;;;;;23.50;10.65;;;7.10;99.90;;;;;;4976180;28;20097;-57
2022/03/27 03:17:33;;;;;;;21.95;10.18;;;7.00;99.90;;;;;;4985610;28;20477;-55
2022/03/27 03:20:00;;;;;;;22.20;9.52;;;6.90;99.90;;;;;;4980396;28;20411;-57
2022/03/27 03:22:27;;;;;;;22.20;10.45;;;6.90;99.90;;;;;;4987352;28;20046;-54
2022/03/27 03:24:54;;;;;;;19.15;9.25;;;6.90;99.90;;;;;;4979471;28;20100;-55
2022/03/27 03:27:21;;;;;;;21.13;9.55;;;6.90;99.90;;;;;;4981041;28;20043;-56
2022/03/27 03:29:48;;;;;;;15.82;9.77;;;6.90;99.90;;;;;;4980657;28;20050;-57
2022/03/27 03:32:14;;;;;;;16.23;10.05;;;6.80;99.90;;;;;;4988050;28;20081;-57
2022/03/27 03:34:41;;;;;;;17.52;9.95;;;6.70;99.90;;;;;;4975702;28;20054;-53
2022/03/27 03:37:08;;;;;;;19.40;10.63;;;6.70;99.90;;;;;;4983570;28;20050;-55
2022/03/27 03:39:35;;;;;;;16.23;11.05;;;6.70;99.90;;;;;;4978901;28;20109;-51
2022/03/27 03:42:02;;;;;;;17.65;9.70;;;6.70;99.90;;;;;;4972923;28;20154;-54
2022/03/27 03:44:29;;;;;;;21.33;11.18;;;6.80;99.90;;;;;;4982726;28;20042;-56
2022/03/27 03:46:55;;;;;;;20.20;10.88;;;6.80;99.90;;;;;;4987771;28;20051;-56
2022/03/27 03:49:24;;;;;;;18.10;10.95;;;6.70;99.90;;;;;;4985427;28;20054;-55
2022/03/27 03:51:51;;;;;;;25.98;12.32;;;6.60;99.90;;;;;;4954822;28;20054;-51
2022/03/27 03:54:18;;;;;;;21.70;10.75;;;6.50;99.90;;;;;;4961891;28;20046;-57
2022/03/27 03:56:45;;;;;;;24.13;11.15;;;6.70;99.90;;;;;;4971920;28;20723;-58
2022/03/27 03:59:12;;;;;;;19.98;11.13;;;6.60;99.90;;;;;;4987457;28;20109;-57
2022/03/27 04:01:56;;;;;;;21.15;11.02;;;6.60;99.90;;;;;;4985001;28;20418;-55
2022/03/27 04:04:24;;;;;;;24.75;11.45;;;6.60;99.90;;;;;;4984297;28;20234;-57
2022/03/27 04:06:51;;;;;;;20.10;11.60;;;6.50;99.90;;;;;;4983636;28;20109;-56
2022/03/27 04:09:20;;;;;;;18.77;10.93;;;6.60;99.90;;;;;;4986931;28;20047;-55
2022/03/27 04:11:47;;;;;;;21.58;11.95;;;6.60;99.90;;;;;;4984184;28;20058;-57
2022/03/27 04:14:14;;;;;;;19.48;11.35;;;6.50;99.90;;;;;;4980202;28;20240;-58
2022/03/27 04:16:41;;;;;;;20.77;11.73;;;6.60;99.90;;;;;;4985278;28;20046;-57
2022/03/27 04:19:08;;;;;;;27.67;13.48;;;6.60;99.90;;;;;;4980763;28;20141;-56
2022/03/27 04:21:34;;;;;;;20.17;11.30;;;6.70;99.90;;;;;;4968823;28;20562;-57
2022/03/27 04:24:01;;;;;;;23.85;11.82;;;6.70;99.90;;;;;;4980675;28;20121;-56
2022/03/27 04:26:31;;;;;;;19.77;11.20;;;6.80;99.90;;;;;;4979863;28;20046;-54
2022/03/27 04:28:58;;;;;;;22.13;12.13;;;6.80;99.90;;;;;;4980637;28;20109;-55
2022/03/27 04:31:25;;;;;;;20.10;11.70;;;6.90;99.90;;;;;;4973950;28;20474;-51
2022/03/27 04:33:52;;;;;;;21.60;10.88;;;6.90;99.90;;;;;;4983285;28;20116;-54
2022/03/27 04:36:19;;;;;;;21.20;11.90;;;7.00;99.90;;;;;;4980030;28;20046;-56
2022/03/27 04:38:46;;;;;;;24.50;11.10;;;7.10;99.90;;;;;;4979132;28;20127;-57
2022/03/27 04:41:12;;;;;;;23.75;12.65;;;7.10;99.90;;;;;;4985844;28;20050;-57
2022/03/27 04:43:39;;;;;;;25.13;13.07;;;7.20;99.90;;;;;;4967135;28;20125;-54
2022/03/27 04:46:07;;;;;;;29.13;13.93;;;7.30;99.90;;;;;;4977700;28;20050;-55
2022/03/27 04:48:34;;;;;;;26.10;12.57;;;7.40;99.90;;;;;;4979839;28;20054;-57
2022/03/27 04:51:01;;;;;;;26.08;13.35;;;7.40;99.90;;;;;;4986606;28;20156;-55
2022/03/27 04:53:28;;;;;;;23.80;13.10;;;7.50;99.90;;;;;;4979640;28;20043;-55
2022/03/27 04:55:55;;;;;;;28.92;14.23;;;7.50;99.90;;;;;;4985215;28;20092;-56
2022/03/27 04:58:22;;;;;;;31.20;13.48;;;7.50;99.90;;;;;;4975500;28;20081;-57
2022/03/27 05:00:49;;;;;;;32.60;14.60;;;7.60;99.90;;;;;;4971956;28;20132;-55
2022/03/27 05:03:16;;;;;;;30.35;14.45;;;7.70;99.90;;;;;;4974982;28;20051;-56
2022/03/27 05:05:44;;;;;;;35.78;16.55;;;7.70;99.90;;;;;;4974833;28;20116;-56
2022/03/27 05:08:10;;;;;;;31.17;15.13;;;7.70;99.90;;;;;;4977183;28;20051;-57
2022/03/27 05:10:38;;;;;;;37.28;17.48;;;7.70;99.90;;;;;;4985659;28;20057;-60
2022/03/27 05:13:07;;;;;;;38.13;15.77;;;7.70;99.90;;;;;;4969631;28;20133;-56
2022/03/27 05:15:34;;;;;;;42.17;17.58;;;7.70;99.90;;;;;;4980432;28;20047;-55
2022/03/27 05:18:01;;;;;;;40.80;16.50;;;7.70;99.90;;;;;;4969891;28;20112;-55
2022/03/27 05:20:29;;;;;;;38.83;16.85;;;7.70;99.90;;;;;;4965369;28;20092;-55
2022/03/27 05:22:56;;;;;;;39.45;15.63;;;7.70;99.90;;;;;;4983454;28;20047;-56
2022/03/27 05:25:23;;;;;;;49.45;20.13;;;7.70;99.90;;;;;;4979282;28;20449;-56
2022/03/27 05:27:53;;;;;;;37.25;14.98;;;7.70;99.90;;;;;;4982630;28;20047;-55
2022/03/27 05:30:21;;;;;;;37.83;16.58;;;7.70;99.90;;;;;;4984996;28;20682;-55
2022/03/27 05:32:49;;;;;;;36.03;16.10;;;7.60;99.90;;;;;;4986178;28;20038;-56
2022/03/27 05:35:16;;;;;;;34.58;15.55;;;7.70;99.90;;;;;;4969724;28;20597;-52
2022/03/27 05:37:44;;;;;;;31.88;13.60;;;7.60;99.90;;;;;;4977482;28;20089;-55
2022/03/27 05:40:12;;;;;;;29.42;14.15;;;7.70;99.90;;;;;;4979963;28;20154;-56
2022/03/27 05:42:39;;;;;;;36.85;12.90;;;7.70;99.90;;;;;;4990226;28;20058;-56
2022/03/27 05:45:07;;;;;;;30.10;13.85;;;7.70;99.90;;;;;;4983447;28;20093;-55
2022/03/27 05:47:34;;;;;;;25.58;13.52;;;7.70;99.90;;;;;;4987318;28;20504;-54
2022/03/27 05:50:01;;;;;;;24.73;13.68;;;7.70;99.90;;;;;;4984719;28;20085;-53
2022/03/27 05:52:27;;;;;;;26.38;12.15;;;7.60;99.90;;;;;;4977772;28;20046;-53
2022/03/27 05:54:54;;;;;;;20.90;12.13;;;7.70;99.90;;;;;;4988269;28;20520;-57
2022/03/27 05:57:21;;;;;;;20.92;11.05;;;7.60;99.90;;;;;;4983030;28;20050;-57
2022/03/27 05:59:48;;;;;;;20.92;11.02;;;7.60;99.90;;;;;;4988657;28;20050;-56
2022/03/27 06:02:14;;;;;;;20.95;11.32;;;7.70;99.90;;;;;;4980288;28;20141;-56
2022/03/27 06:04:42;;;;;;;22.48;10.77;;;7.70;99.90;;;;;;4988573;28;20536;-55
2022/03/27 06:07:09;;;;;;;19.13;10.07;;;7.70;99.90;;;;;;4983145;28;20092;-54
2022/03/27 06:09:36;;;;;;;16.92;9.98;;;7.80;99.90;;;;;;4969914;28;20488;-56
2022/03/27 06:12:03;;;;;;;21.75;10.70;;;7.90;99.90;;;;;;4983840;28;20078;-57
2022/03/27 06:14:30;;;;;;;14.57;9.57;;;7.90;99.90;;;;;;4971719;28;20042;-56
2022/03/27 06:16:57;;;;;;;17.27;9.98;;;7.90;99.90;;;;;;4984099;28;20055;-56
2022/03/27 06:19:24;;;;;;;13.35;8.35;;;8.00;99.90;;;;;;4982946;28;20054;-57
2022/03/27 06:21:51;;;;;;;13.20;8.60;;;8.00;99.90;;;;;;4976976;28;20090;-54
2022/03/27 06:24:18;;;;;;;13.20;7.85;;;8.00;99.90;;;;;;4987765;28;20142;-55
2022/03/27 06:26:44;;;;;;;13.80;8.32;;;8.00;99.90;;;;;;4982090;28;20062;-54
2022/03/27 06:29:14;;;;;;;17.25;8.52;;;8.00;99.90;;;;;;4986396;28;20108;-55
2022/03/27 06:31:41;;;;;;;16.63;9.20;;;8.00;99.90;;;;;;4978467;28;20133;-55
2022/03/27 06:34:07;;;;;;;15.18;8.63;;;8.00;99.90;;;;;;4980025;28;20051;-56
2022/03/27 06:36:34;;;;;;;14.35;8.57;;;8.10;99.90;;;;;;4976799;28;20089;-55
2022/03/27 06:39:04;;;;;;;14.30;8.43;;;8.10;99.90;;;;;;4979189;28;20102;-54
2022/03/27 06:41:30;;;;;;;13.13;8.05;;;8.10;99.90;;;;;;4976007;28;20487;-56
2022/03/27 06:43:57;;;;;;;15.43;9.27;;;8.10;99.90;;;;;;4981996;28;20074;-57
2022/03/27 06:46:24;;;;;;;11.77;7.93;;;8.10;99.90;;;;;;4982159;28;20129;-56
2022/03/27 06:48:51;;;;;;;16.40;9.50;;;8.20;99.90;;;;;;4987238;28;20046;-56
2022/03/27 06:51:19;;;;;;;12.57;7.80;;;8.20;99.90;;;;;;4982323;28;20054;-55
2022/03/27 06:53:46;;;;;;;14.38;8.02;;;8.20;99.90;;;;;;4977663;28;20042;-57
2022/03/27 06:56:13;;;;;;;12.57;7.70;;;8.20;99.90;;;;;;4969485;28;20054;-56
2022/03/27 06:58:40;;;;;;;15.00;8.70;;;8.20;99.90;;;;;;4986182;28;20082;-55
2022/03/27 07:03:53;;;;;;;13.75;9.25;;;8.30;99.90;;;;;;4965121;28;20058;-55
2022/03/27 07:06:20;;;;;;;16.33;8.90;;;8.30;99.90;;;;;;4966220;28;20046;-57
2022/03/27 07:08:47;;;;;;;14.02;8.57;;;8.30;99.90;;;;;;4986085;28;20051;-56
2022/03/27 07:11:14;;;;;;;16.10;8.40;;;8.40;99.90;;;;;;4981961;28;20055;-57
2022/03/27 07:13:44;;;;;;;22.05;8.18;;;8.40;99.90;;;;;;4974073;28;20086;-57
2022/03/27 07:16:11;;;;;;;15.43;9.30;;;8.40;99.90;;;;;;4979460;28;20116;-56
2022/03/27 07:18:37;;;;;;;19.63;8.63;;;8.30;99.90;;;;;;4972451;28;20422;-55
2022/03/27 07:21:05;;;;;;;11.73;8.48;;;8.40;99.90;;;;;;4981921;28;20050;-55
2022/03/27 07:23:32;;;;;;;12.40;7.85;;;8.40;99.90;;;;;;4989817;28;20065;-57
2022/03/27 07:25:59;;;;;;;11.30;7.95;;;8.40;99.90;;;;;;4989943;28;20046;-53
2022/03/27 07:28:30;;;;;;;14.15;8.45;;;8.50;99.90;;;;;;4985836;28;20057;-57
2022/03/27 07:30:58;;;;;;;11.90;7.25;;;8.60;99.90;;;;;;4980840;28;20065;-56
2022/03/27 07:33:27;;;;;;;14.55;8.13;;;8.60;99.90;;;;;;4985226;28;20634;-56
2022/03/27 07:35:55;;;;;;;10.05;6.82;;;8.70;99.90;;;;;;4980988;28;20501;-55
2022/03/27 07:38:21;;;;;;;11.20;7.95;;;8.70;99.90;;;;;;4984254;28;20054;-54
2022/03/27 07:40:48;;;;;;;12.15;7.93;;;8.70;99.90;;;;;;4980848;28;20497;-57
2022/03/27 07:43:15;;;;;;;13.25;6.85;;;8.70;99.90;;;;;;4984847;28;20077;-56
2022/03/27 07:45:42;;;;;;;28.48;8.60;;;8.70;99.90;;;;;;4976924;28;20588;-56
2022/03/27 07:48:09;;;;;;;12.25;7.20;;;8.80;99.90;;;;;;4987997;28;20069;-55
2022/03/27 07:50:36;;;;;;;12.40;7.43;;;8.80;99.90;;;;;;4981197;28;20674;-57
2022/03/27 07:53:04;;;;;;;19.77;8.88;;;8.90;99.90;;;;;;4984493;28;20049;-56
2022/03/27 07:55:31;;;;;;;13.70;8.30;;;8.90;99.90;;;;;;4971436;28;20066;-55
2022/03/27 07:57:58;;;;;;;11.57;7.35;;;8.90;99.90;;;;;;4982088;28;20039;-56
2022/03/27 08:00:27;;;;;;;14.05;8.30;;;8.90;99.90;;;;;;4979741;28;20050;-56
2022/03/27 08:02:55;;;;;;;13.48;8.68;;;9.00;99.90;;;;;;4967963;28;20078;-54
2022/03/27 08:05:22;;;;;;;12.95;8.57;;;8.90;99.90;;;;;;4987596;28;20050;-54
2022/03/27 08:07:50;;;;;;;13.52;9.65;;;9.00;99.90;;;;;;4967130;28;20085;-57
2022/03/27 08:10:17;;;;;;;17.38;10.63;;;9.00;99.90;;;;;;4979612;28;20049;-57
2022/03/27 08:12:43;;;;;;;14.73;9.05;;;9.00;99.90;;;;;;4969859;28;20062;-56
2022/03/27 08:15:11;;;;;;;17.98;8.90;;;9.00;99.90;;;;;;4983515;28;20054;-55
2022/03/27 08:17:41;;;;;;;14.77;9.55;;;9.00;99.90;;;;;;4978174;28;20077;-56
2022/03/27 08:20:08;;;;;;;18.63;8.65;;;9.00;99.90;;;;;;4979646;28;20446;-56
2022/03/27 08:22:35;;;;;;;15.00;7.30;;;9.00;99.90;;;;;;4982500;28;20054;-55
2022/03/27 08:25:02;;;;;;;12.07;7.93;;;9.00;99.90;;;;;;4984774;28;20113;-56
2022/03/27 08:27:32;;;;;;;13.93;8.68;;;8.90;99.90;;;;;;4987952;28;20104;-57
2022/03/27 08:29:59;;;;;;;11.02;7.57;;;9.00;99.90;;;;;;4966206;28;20124;-55
2022/03/27 08:32:26;;;;;;;13.30;8.30;;;9.00;99.90;;;;;;4976252;28;20046;-57
2022/03/27 08:34:53;;;;;;;13.70;8.40;;;9.00;99.90;;;;;;4977438;28;20069;-54
2022/03/27 08:37:20;;;;;;;12.60;8.82;;;9.00;99.90;;;;;;4963530;28;20506;-59
2022/03/27 08:39:46;;;;;;;17.27;9.23;;;9.10;99.90;;;;;;4977444;28;20089;-57
2022/03/27 08:42:14;;;;;;;13.60;8.63;;;9.10;99.90;;;;;;4974486;28;20086;-58
2022/03/27 08:44:41;;;;;;;14.13;9.00;;;9.10;99.90;;;;;;4978003;28;20070;-57
2022/03/27 08:47:24;;;;;;;10.15;5.85;;;9.20;99.90;;;;;;4982604;28;20105;-57
2022/03/27 08:50:16;;;;;;;8.32;4.55;;;9.20;99.90;;;;;;4980781;28;20046;-56
2022/03/27 08:52:56;;;;;;;6.25;4.45;;;9.20;99.90;;;;;;4979683;28;20100;-59
2022/03/27 08:55:39;;;;;;;8.73;5.43;;;9.10;99.90;;;;;;4978178;28;20046;-55
2022/03/27 08:58:09;;;;;;;6.35;4.57;;;9.10;99.90;;;;;;4965335;28;20046;-55
2022/03/27 09:00:37;;;;;;;10.02;4.60;;;9.20;99.90;;;;;;4965020;28;20057;-54
2022/03/27 09:03:05;;;;;;;6.15;4.57;;;9.20;99.90;;;;;;4984901;28;20054;-54
2022/03/27 09:05:38;;;;;;;10.75;5.22;;;9.20;99.90;;;;;;4978076;28;20039;-56
2022/03/27 09:08:09;;;;;;;8.25;5.15;;;9.10;99.90;;;;;;4979739;28;20122;-56
2022/03/27 09:10:37;;;;;;;7.75;5.47;;;9.10;99.90;;;;;;4981718;28;20101;-57
2022/03/27 09:13:04;;;;;;;9.93;5.50;;;9.20;99.90;;;;;;4977059;28;20537;-57
2022/03/27 09:15:31;;;;;;;9.52;5.57;;;9.20;99.90;;;;;;4983046;28;20043;-55
2022/03/27 09:18:04;;;;;;;8.75;5.28;;;9.30;99.90;;;;;;4983892;28;20074;-56
2022/03/27 09:20:33;;;;;;;7.73;5.47;;;9.30;99.90;;;;;;4644781;28;10000539;-57
2022/03/27 09:23:14;;;;;;;7.60;5.22;;;9.40;99.90;;;;;;4986726;28;20517;-57
2022/03/27 09:25:48;;;;;;;9.45;6.03;;;9.40;99.90;;;;;;4982775;28;20630;-57
2022/03/27 09:28:24;;;;;;;11.07;5.93;;;9.40;99.90;;;;;;4985934;28;20050;-54
2022/03/27 09:30:51;;;;;;;11.30;5.72;;;9.50;99.90;;;;;;4983108;28;20093;-59
2022/03/27 09:33:33;;;;;;;9.40;5.45;;;9.40;99.90;;;;;;4983038;28;20050;-57
2022/03/27 09:36:13;;;;;;;9.23;5.75;;;9.50;99.90;;;;;;4982792;28;20039;-56
2022/03/27 09:38:40;;;;;;;7.63;5.55;;;9.40;99.90;;;;;;4978157;28;20055;-64
2022/03/27 09:41:27;;;;;;;7.13;4.65;;;9.30;99.90;;;;;;4972560;28;20047;-58
2022/03/27 09:44:10;;;;;;;7.07;4.72;;;9.40;99.90;;;;;;4978035;28;20074;-58
2022/03/27 09:46:49;;;;;;;9.57;5.47;;;9.50;99.90;;;;;;4973195;28;20206;-60
2022/03/27 09:49:17;;;;;;;8.57;4.95;;;9.60;99.90;;;;;;4980709;28;20429;-60
2022/03/27 09:52:13;;;;;;;10.13;5.40;;;9.60;99.90;;;;;;4968480;28;20086;-60
2022/03/27 09:55:00;;;;;;;13.30;5.78;;;9.50;99.90;;;;;;4979300;28;20061;-60
2022/03/27 09:57:33;;;;;;;8.00;5.20;;;9.60;99.90;;;;;;4980150;28;20042;-59
2022/03/27 10:00:20;;;;;;;11.73;7.45;;;9.60;99.90;;;;;;4986259;28;20509;-63
2022/03/27 10:02:48;;;;;;;6.57;5.07;;;9.60;99.90;;;;;;4984325;28;20077;-62
2022/03/27 10:05:16;;;;;;;6.97;4.93;;;9.70;99.90;;;;;;4979460;28;20047;-58
2022/03/27 10:07:48;;;;;;;7.43;4.97;;;9.60;99.90;;;;;;4984299;28;20137;-59
2022/03/27 10:10:22;;;;;;;5.82;5.00;;;9.70;99.90;;;;;;4985484;28;20042;-58
2022/03/27 10:12:50;;;;;;;8.38;5.63;;;9.70;99.90;;;;;;4985106;28;20047;-58
2022/03/27 10:15:23;;;;;;;10.02;6.15;;;9.60;99.90;;;;;;4969407;28;20120;-58
2022/03/27 10:17:53;;;;;;;11.98;6.80;;;9.50;99.90;;;;;;4985529;28;20136;-58
2022/03/27 10:20:21;;;;;;;12.60;6.95;;;9.40;99.90;;;;;;4980283;28;20054;-58
2022/03/27 10:22:49;;;;;;;12.20;6.53;;;9.50;99.90;;;;;;4980255;28;20042;-58
2022/03/27 10:25:17;;;;;;;9.18;6.63;;;9.40;99.90;;;;;;4986213;28;20066;-57
2022/03/27 10:27:45;;;;;;;10.32;6.13;;;9.40;99.90;;;;;;4980375;28;20081;-59
2022/03/27 10:30:13;;;;;;;11.35;6.28;;;9.40;99.90;;;;;;4986582;28;20145;-60
2022/03/27 10:32:41;;;;;;;11.30;6.40;;;9.50;99.90;;;;;;4985113;28;20058;-59
2022/03/27 10:35:17;;;;;;;7.18;5.38;;;9.50;99.90;;;;;;4982262;28;20098;-60
2022/03/27 10:37:53;;;;;;;9.80;6.55;;;9.50;99.90;;;;;;4977607;28;20046;-58
2022/03/27 10:40:40;;;;;;;9.70;6.43;;;9.50;99.90;;;;;;4975550;28;21393;-60
2022/03/27 10:43:15;;;;;;;10.35;7.15;;;9.50;99.90;;;;;;4961451;28;20042;-59
2022/03/27 10:45:42;;;;;;;11.77;8.40;;;9.50;99.90;;;;;;4960012;28;20130;-57
2022/03/27 10:48:16;;;;;;;12.88;8.90;;;9.60;99.90;;;;;;4976000;28;20055;-59
2022/03/27 10:50:46;;;;;;;;;;;9.60;99.90;;;;;;4979177;28;20434;-59
2022/03/27 10:53:13;;;;;;;15.35;7.80;;;9.50;99.90;;;;;;4971881;28;19953;-60
2022/03/27 10:55:47;;;;;;;18.67;8.85;;;9.50;99.90;;;;;;4971684;28;20101;-59
2022/03/27 10:58:37;;;;;;;12.38;8.95;;;9.60;99.90;;;;;;4974996;28;20065;-60
2022/03/27 11:01:09;;;;;;;15.23;8.88;;;9.60;99.90;;;;;;4976597;28;20043;-57
2022/03/27 11:04:04;;;;;;;11.57;6.97;;;9.60;99.90;;;;;;4975521;28;20051;-59
2022/03/27 11:06:33;;;;;;;13.73;8.65;;;9.50;99.90;;;;;;4977049;28;20549;-60
2022/03/27 11:09:02;;;;;;;10.18;7.47;;;9.50;99.90;;;;;;4977216;28;20545;-57
2022/03/27 11:11:41;;;;;;;16.15;7.78;;;9.60;99.90;;;;;;4973636;28;20054;-59
2022/03/27 11:14:08;;;;;;;12.05;7.32;;;9.60;99.90;;;;;;4977011;28;20055;-59
2022/03/27 11:17:07;;;;;;;11.73;7.80;;;9.70;99.90;;;;;;4958780;28;20047;-60
2022/03/27 11:19:44;;;;;;;9.98;7.25;;;9.70;99.90;;;;;;4977297;28;20049;-60
2022/03/27 11:22:40;;;;;;;14.82;8.40;;;9.80;99.90;;;;;;4974562;28;20055;-57
2022/03/27 11:25:27;;;;;;;11.70;6.93;;;9.80;99.90;;;;;;4971511;28;20055;-60
2022/03/27 11:28:23;;;;;;;13.38;6.70;;;9.70;99.90;;;;;;4977648;28;20830;-59
2022/03/27 11:30:49;;;;;;;11.82;6.57;;;9.80;99.90;;;;;;4977129;28;20253;-60
2022/03/27 11:33:22;;;;;;;14.35;6.72;;;9.80;99.90;;;;;;4977874;28;20078;-59
2022/03/27 11:36:02;;;;;;;11.23;5.45;;;9.90;99.90;;;;;;4974841;28;20050;-58
2022/03/27 11:38:38;;;;;;;7.53;5.40;;;10.00;99.90;;;;;;4974923;28;20516;-59
2022/03/27 11:41:24;;;;;;;16.08;7.07;;;10.00;99.90;;;;;;4961161;28;20050;-58
2022/03/27 11:43:54;;;;;;;11.35;6.15;;;10.00;99.90;;;;;;4975010;28;20113;-60
2022/03/27 11:46:28;;;;;;;10.70;5.90;;;9.90;99.90;;;;;;4956983;28;20200;-60
2022/03/27 11:49:00;;;;;;;8.50;6.22;;;10.00;99.90;;;;;;4972039;28;20042;-59
2022/03/27 11:51:27;;;;;;;9.13;5.95;;;10.00;99.90;;;;;;4957862;28;20097;-59
2022/03/27 11:53:55;;;;;;;8.98;5.95;;;10.10;99.90;;;;;;4978349;28;20050;-59
2022/03/27 11:56:23;;;;;;;7.90;5.35;;;10.10;99.90;;;;;;4975234;28;20496;-58
2022/03/27 11:59:08;;;;;;;6.93;5.07;;;10.10;99.90;;;;;;4974996;28;20078;-59
2022/03/27 12:01:38;;;;;;;9.60;6.05;;;10.20;99.90;;;;;;4975776;28;20193;-59
2022/03/27 12:04:06;;;;;;;8.48;5.65;;;10.20;99.90;;;;;;4980669;28;20042;-59
2022/03/27 12:06:33;;;;;;;8.60;5.57;;;10.20;99.90;;;;;;4979326;28;20553;-59
2022/03/27 12:09:00;;;;;;;10.75;6.03;;;10.20;99.90;;;;;;4978471;28;20472;-58
2022/03/27 12:11:27;;;;;;;9.05;6.35;;;10.30;99.90;;;;;;4978712;28;20557;-58
2022/03/27 12:13:56;;;;;;;8.05;6.32;;;10.30;99.90;;;;;;4972272;28;20331;-60
2022/03/27 12:16:25;;;;;;;10.98;7.18;;;10.30;99.90;;;;;;4974922;28;21109;-59
2022/03/27 12:18:52;;;;;;;11.80;6.57;;;10.30;99.90;;;;;;4962293;28;20166;-60
2022/03/27 12:21:20;;;;;;;10.15;6.35;;;10.30;99.90;;;;;;4975439;28;20046;-58
2022/03/27 12:23:49;;;;;;;10.80;7.50;;;10.30;99.90;;;;;;4972080;28;20484;-59
2022/03/27 12:32:04;;;;;;;10.25;7.38;;;10.40;99.90;;;;;;4976566;28;20599;-60
2022/03/27 12:34:30;;;;;;;9.48;7.00;;;10.30;99.90;;;;;;4970347;28;20050;-59
2022/03/27 12:37:09;;;;;;;12.23;6.90;;;10.20;99.90;;;;;;4968547;28;20043;-60
2022/03/27 12:39:37;;;;;;;13.50;7.65;;;10.20;99.90;;;;;;4968160;28;20054;-59
2022/03/27 12:42:06;;;;;;;11.50;8.30;;;10.20;99.90;;;;;;4973662;28;20094;-59
2022/03/27 12:44:47;;;;;;;12.20;7.30;;;10.20;99.90;;;;;;4982915;28;20112;-59
2022/03/27 12:47:14;;;;;;;10.98;7.97;;;10.20;99.90;;;;;;4975312;28;20109;-59
2022/03/27 12:49:48;;;;;;;11.43;5.68;;;10.20;99.90;;;;;;4941136;28;20050;-58
2022/03/27 12:52:15;;;;;;;;;;;10.30;99.90;;;;;;4973094;28;20102;-59
2022/03/27 12:55:05;;;;;;;11.10;5.60;;;10.40;99.90;;;;;;4975296;28;20282;-58
2022/03/27 12:57:49;;;;;;;9.85;6.32;;;10.40;99.90;;;;;;4967602;28;20050;-57
2022/03/27 13:00:16;;;;;;;7.97;5.68;;;10.40;99.90;;;;;;4974468;28;20081;-60
2022/03/27 13:02:43;;;;;;;9.90;7.05;;;10.40;99.90;;;;;;4972349;28;20051;-58
2022/03/27 13:05:10;;;;;;;12.32;7.47;;;10.40;99.90;;;;;;4952720;28;20039;-59